Portada
METAR-TAF:

METAR-TAF

Aeropuertos :

Budapest, Hungría

Aeropuerto de Budapest-Ferenc Liszt

latitud: 47-26N, longitud: 019-16E, altitud: 151 m

Observación

El informe se hizo hace 27 minutos, a las 19:00 UTC
Viento 2 kt con dirección variable
Temperatura 24°C
Humedad 61%
Presión 1018 hPa
Visibilidad 10 km o más
sin nubes por debajo de 1500 m y sin presencia de cumulonimbus.

METAR: LHBP 171900Z VRB02KT CAVOK 24/16 Q1018 NOSIG

Hora: 21:27 (19:27 UTC)

Pronóstico

El informe se hizo hace 2 horas y 12 minutos, a las 17:15 UTC
Pronóstico válido del 17 a las 18 UTC al 18 a las 18 UTC
Viento 3 kt con dirección variable
Visibilidad 10 km o más
sin nubes por debajo de 1500 m y sin presencia de cumulonimbus.
Temporalmente
del 18 a las 11 UTC al 18 a las 15 UTC
Viento 6 kt del sur-sureste

TAF: LHBP 171715Z 1718/1818 VRB03KT CAVOK TEMPO 1811/1815 15006KT

Observaciones y pronósticos meteorológicos de más de 4000 aeropuertos (mensajes METAR y TAF).

Los puntos amarillos y rojos representan las estaciones disponibles.

Ponga el ratón en el punto deseado para ver el nombre de la estación.

Haga clic para ver las observaciones y los pronósticos meteorológicos.

Para cambiar el mapa : haga clic en los botones verdes con una cruz de color negro para hacer un zoom, en el botón verde con un guión para alejar o en las flechas verdes para mapas adyacentes.


METAR-TAF: